createdAt,value
2019-02-14T00:00:19.373Z,37.73
2019-02-14T00:03:04.755Z,40.90
2019-02-14T00:05:49.996Z,27.43
2019-02-14T00:08:35.271Z,33.03
2019-02-14T00:11:20.239Z,30.83
2019-02-14T00:14:05.287Z,30.50
2019-02-14T00:16:51.153Z,39.10
2019-02-14T00:19:36.323Z,31.60
2019-02-14T00:22:21.670Z,31.80
2019-02-14T00:25:06.979Z,33.20
2019-02-14T00:27:52.196Z,31.40
2019-02-14T00:30:37.474Z,38.50
2019-02-14T00:33:22.239Z,35.13
2019-02-14T00:36:08.008Z,46.40
2019-02-14T00:38:53.291Z,30.13
2019-02-14T00:41:38.662Z,35.07
2019-02-14T00:44:23.668Z,32.97
2019-02-14T00:47:08.878Z,40.50
2019-02-14T00:49:53.769Z,36.80
2019-02-14T00:52:38.920Z,32.93
2019-02-14T00:55:23.973Z,35.40
2019-02-14T00:58:09.016Z,28.40
2019-02-14T01:00:53.938Z,31.17
2019-02-14T01:03:39.084Z,29.83
2019-02-14T01:06:24.777Z,31.37
2019-02-14T01:09:09.689Z,34.90
2019-02-14T01:11:54.917Z,24.87
2019-02-14T01:14:40.017Z,30.23
2019-02-14T01:17:25.473Z,29.37
2019-02-14T01:20:10.941Z,30.43
2019-02-14T01:22:56.281Z,23.13
2019-02-14T01:25:41.537Z,28.40
2019-02-14T01:28:26.754Z,31.20
2019-02-14T01:31:12.091Z,20.33
2019-02-14T01:33:57.316Z,27.90
2019-02-14T01:36:42.480Z,26.30
2019-02-14T01:39:28.318Z,27.20
2019-02-14T01:42:13.552Z,28.53
2019-02-14T01:44:58.636Z,30.60
2019-02-14T01:47:43.936Z,32.93
2019-02-14T01:50:29.134Z,33.27
2019-02-14T01:53:14.163Z,46.33
2019-02-14T01:55:59.502Z,47.67
2019-02-14T01:58:44.282Z,50.00
2019-02-14T02:01:29.594Z,49.50
2019-02-14T02:04:14.959Z,42.70
2019-02-14T02:07:00.033Z,37.40
2019-02-14T02:09:45.177Z,45.13
2019-02-14T02:12:30.397Z,51.53
2019-02-14T02:15:15.445Z,42.87
2019-02-14T02:18:00.579Z,47.17
2019-02-14T02:20:45.459Z,39.23
2019-02-14T02:23:30.550Z,34.27
2019-02-14T02:26:15.597Z,31.40
2019-02-14T02:29:00.645Z,39.57
2019-02-14T02:31:46.046Z,39.57
2019-02-14T02:34:31.239Z,39.77
2019-02-14T02:37:16.436Z,41.77
2019-02-14T02:40:02.013Z,38.43
2019-02-14T02:42:47.170Z,38.83
2019-02-14T02:45:32.532Z,47.33
2019-02-14T02:48:17.623Z,44.83
2019-02-14T02:51:02.839Z,44.23
2019-02-14T02:53:47.816Z,42.80
2019-02-14T02:56:32.673Z,34.57
2019-02-14T02:59:18.143Z,35.37
2019-02-14T03:02:03.105Z,32.57
2019-02-14T03:04:48.207Z,32.70
2019-02-14T03:07:33.493Z,32.37
2019-02-14T03:10:18.559Z,30.57
2019-02-14T03:13:04.124Z,33.00
2019-02-14T03:15:48.896Z,35.47
2019-02-14T03:18:34.201Z,28.23
2019-02-14T03:21:19.318Z,29.23
2019-02-14T03:24:04.795Z,26.83
2019-02-14T03:26:49.950Z,31.33
2019-02-14T03:29:35.422Z,32.57
2019-02-14T03:32:20.530Z,30.60
2019-02-14T03:35:06.747Z,23.93
2019-02-14T03:37:52.000Z,34.50
2019-02-14T03:40:37.695Z,31.57
2019-02-14T03:43:22.498Z,31.90
2019-02-14T03:46:07.416Z,27.93
2019-02-14T03:48:52.662Z,28.03
2019-02-14T03:51:37.895Z,30.47
2019-02-14T03:54:23.111Z,28.10
2019-02-14T03:57:08.194Z,35.07
2019-02-14T03:59:53.208Z,23.50
2019-02-14T04:02:38.722Z,31.40
2019-02-14T04:05:23.791Z,32.67
2019-02-14T04:08:09.229Z,29.40
2019-02-14T04:10:54.297Z,31.50
2019-02-14T04:13:39.402Z,26.90
2019-02-14T04:16:25.186Z,32.30
2019-02-14T04:19:10.339Z,30.33
2019-02-14T04:21:55.288Z,32.43
2019-02-14T04:24:40.764Z,33.77
2019-02-14T04:27:26.114Z,32.80
2019-02-14T04:30:12.942Z,37.30
2019-02-14T04:32:57.931Z,24.60
2019-02-14T04:35:42.627Z,32.30
2019-02-14T04:38:27.321Z,32.63
2019-02-14T04:41:12.354Z,29.90
2019-02-14T04:43:57.397Z,22.60
2019-02-14T04:46:42.198Z,22.33
2019-02-14T04:49:27.346Z,27.20
2019-02-14T04:52:12.946Z,23.67
2019-02-14T04:54:58.074Z,24.97
2019-02-14T04:57:43.449Z,25.57
2019-02-14T05:00:28.565Z,26.37
2019-02-14T05:03:13.424Z,27.30
2019-02-14T05:05:58.604Z,29.60
2019-02-14T05:08:43.882Z,19.20
2019-02-14T05:11:28.868Z,20.00
2019-02-14T05:14:14.356Z,30.63
2019-02-14T05:16:59.409Z,23.03
2019-02-14T05:19:44.834Z,20.43
2019-02-14T05:22:29.963Z,28.20
2019-02-14T05:25:15.258Z,23.00
2019-02-14T05:28:00.395Z,26.30
2019-02-14T05:30:45.538Z,21.00
2019-02-14T05:33:30.879Z,22.03
2019-02-14T05:36:16.136Z,19.67
2019-02-14T05:39:01.389Z,26.60
2019-02-14T05:41:46.689Z,19.50
2019-02-14T05:44:32.078Z,22.77
2019-02-14T05:47:17.383Z,22.87
2019-02-14T05:50:05.184Z,22.23
2019-02-14T05:52:50.206Z,17.77
2019-02-14T05:55:35.330Z,18.73
2019-02-14T05:58:20.614Z,20.33
2019-02-14T06:01:06.058Z,19.53
2019-02-14T06:03:51.321Z,26.00
2019-02-14T06:06:36.180Z,22.90
2019-02-14T06:09:21.305Z,21.87
2019-02-14T06:12:06.666Z,21.33
2019-02-14T06:14:51.819Z,21.30
2019-02-14T06:17:36.969Z,21.60
2019-02-14T06:20:21.883Z,26.40
2019-02-14T06:23:07.063Z,24.07
2019-02-14T06:25:52.346Z,23.83
2019-02-14T06:28:37.551Z,20.50
2019-02-14T06:31:22.802Z,23.87
2019-02-14T06:34:07.603Z,24.27
2019-02-14T06:36:52.855Z,26.80
2019-02-14T06:39:38.184Z,29.63
2019-02-14T06:42:23.785Z,32.80
2019-02-14T06:45:16.600Z,33.63
2019-02-14T06:48:01.627Z,29.00
2019-02-14T06:50:46.516Z,28.20
2019-02-14T06:53:31.602Z,26.20
2019-02-14T06:56:16.165Z,26.93
2019-02-14T06:59:01.040Z,27.00
2019-02-14T07:01:48.247Z,30.03
2019-02-14T07:04:33.502Z,31.47
2019-02-14T07:07:19.079Z,29.63
2019-02-14T07:10:06.505Z,37.83
2019-02-14T07:12:51.845Z,31.60
2019-02-14T07:15:36.823Z,37.97
2019-02-14T07:18:22.031Z,40.27
2019-02-14T07:21:06.901Z,39.37
2019-02-14T07:23:52.177Z,39.10
2019-02-14T07:26:37.170Z,38.30
2019-02-14T07:29:22.499Z,41.30
2019-02-14T07:32:07.555Z,38.10
2019-02-14T07:34:52.724Z,39.00
2019-02-14T07:37:37.712Z,44.10
2019-02-14T07:40:23.027Z,35.90
2019-02-14T07:43:07.849Z,36.60
2019-02-14T07:45:53.120Z,41.07
2019-02-14T07:48:38.003Z,41.13
2019-02-14T07:51:26.183Z,38.07
2019-02-14T07:54:11.877Z,35.57
2019-02-14T07:56:56.705Z,34.47
2019-02-14T07:59:41.684Z,33.50
2019-02-14T08:02:26.714Z,36.70
2019-02-14T08:05:11.946Z,34.77
2019-02-14T08:07:57.076Z,34.07
2019-02-14T08:10:42.305Z,32.43
2019-02-14T08:13:27.663Z,34.50
2019-02-14T08:16:12.374Z,31.17
2019-02-14T08:19:00.306Z,31.73
2019-02-14T08:21:44.939Z,37.03
2019-02-14T08:24:29.673Z,33.80
2019-02-14T08:27:15.067Z,34.90
2019-02-14T08:30:00.457Z,27.30
2019-02-14T08:32:45.321Z,27.83
2019-02-14T08:35:30.587Z,29.80
2019-02-14T08:38:15.276Z,31.30
2019-02-14T08:41:00.341Z,26.70
2019-02-14T08:43:45.686Z,24.87
2019-02-14T08:46:30.828Z,35.57
2019-02-14T08:49:15.502Z,28.33
2019-02-14T08:52:02.541Z,30.53
2019-02-14T08:54:47.842Z,33.70
2019-02-14T08:57:32.838Z,31.83
2019-02-14T09:00:17.674Z,36.77
2019-02-14T09:03:02.980Z,44.70
2019-02-14T09:05:50.737Z,28.10
2019-02-14T09:08:36.078Z,38.97
2019-02-14T09:11:24.227Z,31.40
2019-02-14T09:14:09.634Z,37.80
2019-02-14T09:16:54.598Z,31.57
2019-02-14T09:19:39.495Z,30.80
2019-02-14T09:22:24.805Z,31.37
2019-02-14T09:25:10.123Z,30.63
2019-02-14T09:27:54.852Z,28.60
2019-02-14T09:30:39.625Z,27.97
2019-02-14T09:33:24.479Z,36.07
2019-02-14T09:36:09.541Z,34.17
2019-02-14T09:38:54.560Z,33.23
2019-02-14T09:41:39.609Z,33.77
2019-02-14T09:44:24.815Z,25.07
2019-02-14T09:47:10.100Z,26.00
2019-02-14T09:49:55.540Z,24.97
2019-02-14T09:52:41.172Z,14.83
2019-02-14T09:55:26.056Z,15.80
2019-02-14T09:58:11.332Z,15.63
2019-02-14T10:00:56.410Z,16.37
2019-02-14T10:03:41.686Z,14.13
2019-02-14T10:06:26.634Z,16.03
2019-02-14T10:09:11.786Z,12.17
2019-02-14T10:11:56.597Z,13.33
2019-02-14T10:14:41.872Z,16.03
2019-02-14T10:17:26.700Z,13.53
2019-02-14T10:20:13.979Z,11.83
2019-02-14T10:22:59.391Z,19.67
2019-02-14T10:25:44.583Z,15.17
2019-02-14T10:28:29.615Z,25.33
2019-02-14T10:31:14.435Z,19.80
2019-02-14T10:33:59.872Z,20.53
2019-02-14T10:36:44.602Z,15.93
2019-02-14T10:39:29.476Z,22.77
2019-02-14T10:42:14.488Z,15.37
2019-02-14T10:44:59.760Z,18.87
2019-02-14T10:47:44.586Z,17.27
2019-02-14T10:50:29.583Z,13.40
2019-02-14T10:53:14.871Z,12.23
2019-02-14T10:55:59.748Z,16.90
2019-02-14T10:58:45.092Z,17.37
2019-02-14T11:01:30.112Z,15.57
2019-02-14T11:04:15.224Z,16.03
2019-02-14T11:07:00.458Z,13.43
2019-02-14T11:09:45.404Z,13.70
2019-02-14T11:12:30.680Z,11.73
2019-02-14T11:15:20.208Z,11.60
2019-02-14T11:18:05.509Z,17.33
2019-02-14T11:20:50.494Z,13.80
2019-02-14T11:23:35.278Z,12.47
2019-02-14T11:26:20.204Z,16.17
2019-02-14T11:29:05.162Z,18.40
2019-02-14T11:31:50.343Z,19.23
2019-02-14T11:34:35.652Z,20.77
2019-02-14T11:37:20.706Z,18.43
2019-02-14T11:40:08.863Z,19.00
2019-02-14T11:42:53.855Z,15.67
2019-02-14T11:45:38.921Z,18.43
2019-02-14T11:48:24.060Z,17.83
2019-02-14T11:51:09.181Z,22.00
2019-02-14T11:53:54.302Z,22.63
2019-02-14T11:56:39.434Z,23.67
2019-02-14T11:59:24.939Z,18.07
2019-02-14T12:02:10.214Z,17.30
2019-02-14T12:04:55.642Z,22.93
2019-02-14T12:07:40.974Z,14.03
2019-02-14T12:10:26.704Z,18.83
2019-02-14T12:13:11.806Z,13.03
2019-02-14T12:15:56.897Z,12.27
2019-02-14T12:18:42.138Z,16.70
2019-02-14T12:21:26.964Z,13.03
2019-02-14T12:24:12.359Z,13.20
2019-02-14T12:26:57.380Z,16.57
2019-02-14T12:29:42.735Z,15.27
2019-02-14T12:32:27.878Z,14.47
2019-02-14T12:35:13.651Z,15.40
2019-02-14T12:37:59.087Z,15.53
2019-02-14T12:40:44.209Z,16.77
2019-02-14T12:43:29.442Z,19.63
2019-02-14T12:46:14.995Z,18.23
2019-02-14T12:48:59.858Z,20.43
2019-02-14T12:51:45.177Z,14.57
2019-02-14T12:54:30.251Z,15.17
2019-02-14T12:57:17.860Z,18.00
2019-02-14T13:00:16.071Z,14.30
2019-02-14T13:03:00.779Z,17.63
2019-02-14T13:05:45.780Z,18.63
2019-02-14T13:08:30.860Z,15.63
2019-02-14T13:11:16.193Z,21.20
2019-02-14T13:14:01.194Z,18.37
2019-02-14T13:16:46.259Z,19.87
2019-02-14T13:19:31.526Z,20.93
2019-02-14T13:22:16.630Z,22.97
2019-02-14T13:25:01.452Z,23.23
2019-02-14T13:27:46.673Z,20.27
2019-02-14T13:30:31.729Z,23.27
2019-02-14T13:33:16.871Z,26.53
2019-02-14T13:36:01.968Z,24.57
2019-02-14T13:38:46.914Z,22.00
2019-02-14T13:41:31.999Z,26.67
2019-02-14T13:44:17.330Z,29.73
2019-02-14T13:47:02.412Z,24.50
2019-02-14T13:49:47.650Z,28.77
2019-02-14T13:52:32.457Z,32.13
2019-02-14T13:55:18.116Z,28.03
2019-02-14T13:58:02.834Z,31.73
2019-02-14T14:00:48.274Z,31.60
2019-02-14T14:03:33.084Z,33.17
2019-02-14T14:06:18.556Z,34.53
2019-02-14T14:09:06.886Z,31.87
2019-02-14T14:11:52.120Z,41.23
2019-02-14T14:14:37.126Z,27.53
2019-02-14T14:17:22.045Z,29.87
2019-02-14T14:20:08.091Z,28.17
2019-02-14T14:22:53.706Z,31.83
2019-02-14T14:25:38.874Z,34.27
2019-02-14T14:28:24.063Z,29.17
2019-02-14T14:31:09.071Z,25.30
2019-02-14T14:33:54.049Z,27.70
2019-02-14T14:36:40.034Z,26.77
2019-02-14T14:39:24.649Z,27.10
2019-02-14T14:42:12.293Z,28.97
2019-02-14T14:44:57.738Z,29.80
2019-02-14T14:47:42.847Z,25.90
2019-02-14T14:50:28.029Z,27.07
2019-02-14T14:53:12.998Z,27.50
2019-02-14T14:55:58.259Z,25.20
2019-02-14T14:58:43.105Z,25.30
2019-02-14T15:01:27.942Z,20.40
2019-02-14T15:04:12.965Z,25.60
2019-02-14T15:06:57.930Z,24.07
2019-02-14T15:09:45.430Z,25.07
2019-02-14T15:12:47.122Z,19.00
2019-02-14T15:15:31.960Z,23.20
2019-02-14T15:18:16.867Z,23.10
2019-02-14T15:21:02.290Z,22.57
2019-02-14T15:23:47.190Z,25.23
2019-02-14T15:26:32.304Z,24.13
2019-02-14T15:29:17.224Z,28.73
2019-02-14T15:32:02.477Z,29.60
2019-02-14T15:34:47.607Z,25.67
2019-02-14T15:37:32.991Z,31.27
2019-02-14T15:40:18.126Z,28.40
2019-02-14T15:43:03.238Z,31.97
2019-02-14T15:45:48.381Z,34.60
2019-02-14T15:48:35.824Z,30.83
2019-02-14T15:51:21.203Z,43.53
2019-02-14T15:54:07.443Z,44.63
2019-02-14T15:56:56.243Z,38.80
2019-02-14T15:59:42.442Z,36.43
2019-02-14T16:02:28.570Z,37.90
2019-02-14T16:05:16.782Z,53.20
2019-02-14T16:08:02.924Z,77.63
2019-02-14T16:10:49.704Z,45.93
2019-02-14T16:13:35.545Z,45.47
2019-02-14T16:16:22.580Z,67.07
2019-02-14T16:19:08.857Z,132.97
2019-02-14T16:21:56.124Z,139.20
2019-02-14T16:24:42.958Z,132.20
2019-02-14T16:27:28.704Z,116.57
2019-02-14T16:30:14.150Z,157.20
2019-02-14T16:32:59.433Z,106.30
2019-02-14T16:35:44.692Z,93.37
2019-02-14T16:38:30.051Z,120.13
2019-02-14T16:41:14.984Z,100.23
2019-02-14T16:44:00.449Z,101.23
2019-02-14T16:46:45.665Z,65.53
2019-02-14T16:49:31.045Z,63.40
2019-02-14T16:52:16.292Z,59.47
2019-02-14T16:55:01.485Z,92.37
2019-02-14T16:57:47.249Z,89.83
2019-02-14T17:00:34.517Z,85.20
2019-02-14T17:03:21.445Z,62.97
2019-02-14T17:06:06.531Z,67.90
2019-02-14T17:08:52.225Z,65.90
2019-02-14T17:11:37.861Z,68.57
2019-02-14T17:14:22.909Z,82.40
2019-02-14T17:17:08.396Z,86.33
2019-02-14T17:19:53.873Z,80.73
2019-02-14T17:22:39.202Z,67.67
2019-02-14T17:25:24.711Z,76.70
2019-02-14T17:28:09.824Z,84.80
2019-02-14T17:30:55.358Z,101.23
2019-02-14T17:33:40.573Z,92.53
2019-02-14T17:36:25.956Z,75.73
2019-02-14T17:39:10.992Z,88.33
2019-02-14T17:41:56.855Z,100.73
2019-02-14T17:44:42.806Z,108.20
2019-02-14T17:47:28.212Z,110.43
2019-02-14T17:50:14.058Z,93.43
2019-02-14T17:52:59.488Z,89.23
2019-02-14T17:55:44.615Z,87.60
2019-02-14T17:58:30.445Z,108.63
2019-02-14T18:01:15.757Z,107.07
2019-02-14T18:04:00.806Z,104.33
2019-02-14T18:06:46.201Z,92.90
2019-02-14T18:09:31.348Z,89.50
2019-02-14T18:12:16.701Z,96.97
2019-02-14T18:15:02.410Z,124.93
2019-02-14T18:17:47.938Z,89.27
2019-02-14T18:20:32.783Z,87.30
2019-02-14T18:23:18.680Z,95.17
2019-02-14T18:26:03.974Z,89.60
2019-02-14T18:28:49.046Z,98.10
2019-02-14T18:31:34.714Z,87.00
2019-02-14T18:34:19.906Z,87.23
2019-02-14T18:37:05.964Z,90.37
2019-02-14T18:39:51.572Z,87.47
2019-02-14T18:42:39.972Z,88.87
2019-02-14T18:45:25.520Z,94.47
2019-02-14T18:48:10.511Z,99.90
2019-02-14T18:50:55.815Z,94.47
2019-02-14T18:53:40.973Z,96.10
2019-02-14T18:56:26.121Z,94.87
2019-02-14T18:59:11.678Z,93.77
2019-02-14T19:01:58.211Z,97.23
2019-02-14T19:04:43.437Z,93.70
2019-02-14T19:07:28.477Z,96.20
2019-02-14T19:10:15.575Z,95.77
2019-02-14T19:13:00.770Z,120.70
2019-02-14T19:15:45.992Z,113.30
2019-02-14T19:18:31.340Z,103.13
2019-02-14T19:21:16.724Z,98.03
2019-02-14T19:24:03.866Z,101.53
2019-02-14T19:26:48.994Z,120.37
2019-02-14T19:29:36.445Z,109.60
2019-02-14T19:32:21.810Z,109.77
2019-02-14T19:35:08.147Z,106.67
2019-02-14T19:37:53.193Z,110.37
2019-02-14T19:40:38.640Z,104.73
2019-02-14T19:43:23.639Z,107.67
2019-02-14T19:46:09.191Z,125.57
2019-02-14T19:48:54.393Z,177.27
2019-02-14T19:51:39.806Z,105.70
2019-02-14T19:54:25.170Z,98.70
2019-02-14T19:57:12.261Z,100.90
2019-02-14T19:59:57.512Z,107.30
2019-02-14T20:02:44.057Z,112.43
2019-02-14T20:05:29.105Z,111.17
2019-02-14T20:08:14.797Z,109.07
2019-02-14T20:11:02.182Z,107.93
2019-02-14T20:13:49.519Z,111.13
2019-02-14T20:16:33.978Z,127.97
2019-02-14T20:19:19.635Z,120.83
2019-02-14T20:22:04.655Z,108.17
2019-02-14T20:24:50.014Z,109.53
2019-02-14T20:27:35.494Z,110.73
2019-02-14T20:30:21.220Z,108.27
2019-02-14T20:33:06.487Z,109.80
2019-02-14T20:35:51.868Z,111.73
2019-02-14T20:38:37.210Z,116.30
2019-02-14T20:41:22.507Z,116.37
2019-02-14T20:44:07.849Z,137.90
2019-02-14T20:46:53.174Z,124.17
2019-02-14T20:49:39.607Z,297.50
2019-02-14T20:52:24.495Z,118.47
2019-02-14T20:55:13.443Z,113.73
2019-02-14T20:57:58.985Z,113.30
2019-02-14T21:00:44.754Z,122.33
2019-02-14T21:03:30.040Z,121.40
2019-02-14T21:06:17.351Z,115.43
2019-02-14T21:09:04.454Z,124.00
2019-02-14T21:11:54.787Z,119.37
2019-02-14T21:14:37.411Z,111.63
2019-02-14T21:17:22.522Z,120.30
2019-02-14T21:20:10.152Z,117.63
2019-02-14T21:22:55.767Z,117.60
2019-02-14T21:25:40.985Z,128.63
2019-02-14T21:28:27.045Z,119.07
2019-02-14T21:31:12.336Z,113.53
2019-02-14T21:33:57.438Z,111.70
2019-02-14T21:36:43.678Z,127.63
2019-02-14T21:39:29.801Z,130.73
2019-02-14T21:42:21.028Z,126.00
2019-02-14T21:45:08.136Z,158.37
2019-02-14T21:47:53.509Z,141.57
2019-02-14T21:50:43.204Z,139.33
2019-02-14T21:53:29.578Z,138.87
2019-02-14T21:56:17.086Z,143.97
2019-02-14T21:59:02.551Z,139.07
2019-02-14T22:01:49.021Z,136.43
2019-02-14T22:04:34.542Z,146.30
2019-02-14T22:07:19.778Z,131.30
2019-02-14T22:10:08.373Z,143.07
2019-02-14T22:12:55.083Z,137.83
2019-02-14T22:15:40.095Z,136.73
2019-02-14T22:18:25.147Z,135.03
2019-02-14T22:21:10.316Z,135.57
2019-02-14T22:23:55.365Z,191.70
2019-02-14T22:26:40.815Z,133.63
2019-02-14T22:29:26.438Z,147.50
2019-02-14T22:32:12.082Z,143.50
2019-02-14T22:34:57.503Z,126.93
2019-02-14T22:37:42.746Z,134.13
2019-02-14T22:40:27.693Z,131.23
2019-02-14T22:43:12.962Z,125.10
2019-02-14T22:45:58.408Z,133.73
2019-02-14T22:48:43.445Z,124.60
2019-02-14T22:51:29.161Z,107.50
2019-02-14T22:54:14.212Z,110.27
2019-02-14T22:56:59.487Z,120.60
2019-02-14T22:59:45.104Z,115.93
2019-02-14T23:02:30.685Z,110.20
2019-02-14T23:05:16.216Z,114.00
2019-02-14T23:08:01.401Z,109.57
2019-02-14T23:10:46.709Z,109.00
2019-02-14T23:13:31.756Z,115.17
2019-02-14T23:16:17.161Z,108.50
2019-02-14T23:19:02.481Z,111.17
2019-02-14T23:21:47.524Z,105.60
2019-02-14T23:24:33.002Z,126.77
2019-02-14T23:27:18.064Z,117.67
2019-02-14T23:30:10.036Z,117.07
2019-02-14T23:32:54.902Z,122.83
2019-02-14T23:35:40.151Z,118.70
2019-02-14T23:38:25.482Z,112.17
2019-02-14T23:41:10.612Z,117.30
2019-02-14T23:43:56.041Z,112.57
2019-02-14T23:46:41.291Z,110.87
2019-02-14T23:49:26.906Z,114.40
2019-02-14T23:52:12.110Z,105.27
2019-02-14T23:54:56.924Z,102.77
2019-02-14T23:57:42.879Z,94.93
